Time;durP1;ratioP1;P1;durP2;ratioP2;P2;SDS_P1;SDS_P2;PMS_P1;PMS_P2;Temp;Humidity;BMP_temperature;BMP_pressure;BME280_temperature;BME280_humidity;BME280_pressure;Samples;Min_cycle;Max_cycle;Signal;HPM_P1;HPM_P2
2022/06/22 00:00:19;;;;;;;2.40;2.20;;;;;;;10.69;100.00;97727.14;1788415;80;20088;-68
2022/06/22 00:02:49;;;;;;;2.55;2.12;;;;;;;10.58;100.00;97717.70;1788776;80;20866;-69
2022/06/22 00:05:20;;;;;;;2.35;2.15;;;;;;;10.53;100.00;97715.67;1788560;80;21959;-70
2022/06/22 00:07:53;;;;;;;2.33;2.10;;;;;;;10.51;100.00;97711.97;1790776;77;20899;-69
2022/06/22 00:10:35;;;;;;;4.17;2.87;;;;;;;10.49;100.00;97708.23;1860631;77;21491;-69
2022/06/22 00:13:01;;;;;;;2.27;2.17;;;;;;;10.45;100.00;97705.88;1860883;77;21471;-69
2022/06/22 00:15:37;;;;;;;2.67;2.47;;;;;;;10.50;100.00;97711.14;1860952;77;21442;-69
2022/06/22 00:18:27;;;;;;;2.22;2.12;;;;;;;10.48;100.00;97704.48;1860686;77;21510;-69
2022/06/22 00:20:59;;;;;;;4.55;2.35;;;;;;;10.49;100.00;97704.75;1860677;77;20940;-70
2022/06/22 00:23:39;;;;;;;3.87;2.30;;;;;;;10.51;100.00;97703.92;1860639;77;20895;-70
2022/06/22 00:26:18;;;;;;;2.83;2.42;;;;;;;10.47;100.00;97688.95;1860729;77;20861;-70
2022/06/22 00:29:11;;;;;;;2.70;2.50;;;;;;;10.40;100.00;97683.19;1857890;77;20900;-69
2022/06/22 00:31:43;;;;;;;3.85;2.30;;;;;;;10.35;100.00;97684.63;1860807;77;21239;-71
2022/06/22 00:34:15;;;;;;;2.20;2.10;;;;;;;10.27;100.00;97680.72;1860983;77;20908;-70
2022/06/22 00:37:16;;;;;;;2.80;2.35;;;;;;;10.27;100.00;97678.59;1860881;77;20951;-71
2022/06/22 00:39:51;;;;;;;2.60;2.40;;;;;;;10.29;100.00;97675.10;1860564;77;20893;-71
2022/06/22 00:42:32;;;;;;;4.03;2.50;;;;;;;10.22;100.00;97667.41;1859901;77;20853;-71
2022/06/22 00:45:12;;;;;;;5.00;2.40;;;;;;;10.24;100.00;97661.22;1860780;77;21145;-71
2022/06/22 00:48:09;;;;;;;2.70;2.50;;;;;;;10.24;100.00;97655.03;1860526;77;21415;-72
2022/06/22 00:50:45;;;;;;;3.27;2.42;;;;;;;10.22;100.00;97648.65;1860239;76;20860;-71
2022/06/22 00:53:22;;;;;;;2.83;2.62;;;;;;;10.24;100.00;97649.67;1858618;77;20904;-71
2022/06/22 00:55:57;;;;;;;2.80;2.60;;;;;;;10.24;100.00;97651.02;1859022;77;20865;-71
2022/06/22 00:58:48;;;;;;;2.62;2.30;;;;;;;10.20;100.00;97645.46;1858915;77;21893;-69
2022/06/22 01:01:58;;;;;;;3.10;2.47;;;;;;;10.18;100.00;97644.96;1858578;77;20861;-73
2022/06/22 01:04:36;;;;;;;2.20;2.10;;;;;;;10.21;100.00;97646.25;1858580;77;20872;-73
2022/06/22 01:07:24;;;;;;;2.87;2.62;;;;;;;10.16;100.00;97642.33;1858820;77;20913;-72
2022/06/22 01:10:04;;;;;;;2.58;2.40;;;;;;;10.17;100.00;97639.36;1858628;77;21478;-69
2022/06/22 01:12:52;;;;;;;6.12;2.67;;;;;;;10.11;100.00;97635.17;1858890;77;21509;-69
2022/06/22 01:15:42;;;;;;;3.75;2.60;;;;;;;10.09;100.00;97632.81;1858546;77;20861;-68
2022/06/22 01:18:15;;;;;;;3.75;2.60;;;;;;;10.09;100.00;97634.67;1858732;77;21465;-67
2022/06/22 01:21:08;;;;;;;2.50;2.30;;;;;;;10.08;100.00;97642.48;1858573;77;20957;-67
2022/06/22 01:24:00;;;;;;;3.00;2.58;;;;;;;10.08;100.00;97635.78;1739436;81;21003;-67
2022/06/22 01:26:47;;;;;;;3.70;2.80;;;;;;;10.12;100.00;97631.95;1739445;82;21084;-68
2022/06/22 01:29:21;;;;;;;3.30;3.00;;;;;;;10.14;100.00;97629.77;1739277;82;21445;-68
2022/06/22 01:32:01;;;;;;;7.10;3.02;;;;;;;10.09;100.00;97629.31;1739475;82;20956;-69
2022/06/22 01:34:35;;;;;;;2.70;2.60;;;;;;;10.11;100.00;97625.80;1739577;82;20876;-68
2022/06/22 01:37:04;;;;;;;2.60;2.50;;;;;;;10.15;100.00;97620.09;1739356;82;20983;-69
2022/06/22 01:39:30;;;;;;;4.67;2.70;;;;;;;10.13;100.00;97622.28;1739737;82;21108;-70
2022/06/22 01:42:05;;;;;;;3.58;3.08;;;;;;;10.14;100.00;97623.06;1739238;82;20845;-68
2022/06/22 01:45:00;;;;;;;3.10;2.87;;;;;;;10.14;100.00;97623.06;1739444;82;20999;-69
2022/06/22 01:47:47;;;;;;;4.92;3.10;;;;;;;10.10;100.00;97621.54;1717684;82;20936;-68
2022/06/22 01:50:31;;;;;;;3.80;3.08;;;;;;;10.11;100.00;97616.96;1739828;82;20987;-69
2022/06/22 01:53:24;;;;;;;6.00;3.10;;;;;;;10.14;100.00;97620.38;1763874;81;21218;-69
2022/06/22 01:56:07;;;;;;;3.30;3.00;;;;;;;10.15;100.00;97613.39;1764746;81;20961;-68
2022/06/22 01:58:54;;;;;;;3.22;3.00;;;;;;;10.19;100.00;97616.26;1764684;81;20909;-70
2022/06/22 02:01:38;;;;;;;3.33;3.05;;;;;;;10.21;100.00;97612.73;1817262;77;21516;-69
2022/06/22 02:04:39;;;;;;;3.52;3.05;;;;;;;10.21;100.00;97613.53;1866736;77;20967;-69
2022/06/22 02:10:23;;;;;;;3.30;3.10;;;;;;;10.07;100.00;97618.12;1866622;77;20955;-68
2022/06/22 02:13:10;;;;;;;3.83;3.33;;;;;;;9.96;100.00;97617.50;1867203;76;20833;-68
2022/06/22 02:15:48;;;;;;;3.72;3.42;;;;;;;9.86;100.00;97625.18;1866832;77;20868;-69
2022/06/22 02:18:19;;;;;;;;;;;;;;;9.80;100.00;97633.08;1868544;77;21454;-69
2022/06/22 02:20:45;;;;;;;4.00;3.47;;;;;;;9.78;100.00;97637.14;1866798;77;21242;-68
2022/06/22 02:23:23;;;;;;;3.50;3.20;;;;;;;9.74;100.00;97642.28;1866899;77;21462;-68
2022/06/22 02:26:02;;;;;;;4.62;3.85;;;;;;;9.81;100.00;97645.92;1866691;77;21667;-69
2022/06/22 02:28:29;;;;;;;4.35;3.50;;;;;;;9.79;100.00;97645.41;1866900;77;20937;-69
2022/06/22 02:30:56;;;;;;;3.33;3.12;;;;;;;9.84;100.00;97645.32;1866595;77;21375;-68
2022/06/22 02:33:24;;;;;;;3.47;3.17;;;;;;;9.88;100.00;97649.80;1808889;77;21794;-69
2022/06/22 02:35:50;;;;;;;3.75;3.15;;;;;;;9.94;100.00;97649.70;1866628;77;20863;-69
2022/06/22 02:38:17;;;;;;;4.37;3.00;;;;;;;9.99;100.00;97645.59;1866713;77;20896;-68
2022/06/22 02:46:20;;;;;;;3.05;2.85;;;;;;;10.08;100.00;97636.56;1866793;77;21160;-68
2022/06/22 02:48:53;;;;;;;3.12;2.83;;;;;;;10.14;100.00;97639.15;1866762;76;20861;-69
2022/06/22 02:51:41;;;;;;;3.10;2.90;;;;;;;10.21;100.00;97644.91;1866479;77;20999;-69
2022/06/22 02:54:16;;;;;;;3.87;2.70;;;;;;;10.25;100.00;97644.58;1866819;77;20919;-69
2022/06/22 02:56:43;;;;;;;3.22;2.70;;;;;;;10.28;100.00;97646.69;1866457;77;20904;-68
2022/06/22 02:59:10;;;;;;;2.98;2.80;;;;;;;10.28;100.00;97648.81;1866736;77;21201;-68
2022/06/22 03:01:37;;;;;;;3.12;2.83;;;;;;;10.27;100.00;97635.14;1866488;77;20860;-67
2022/06/22 03:04:11;;;;;;;4.17;3.77;;;;;;;10.29;100.00;97628.97;1866519;77;21450;-68
2022/06/22 03:06:48;;;;;;;4.50;3.47;;;;;;;10.33;100.00;97623.00;1866180;77;20873;-67
2022/06/22 03:09:15;;;;;;;16.82;3.08;;;;;;;10.43;100.00;97622.79;1866813;77;21486;-68
2022/06/22 03:11:47;;;;;;;4.28;3.12;;;;;;;10.49;100.00;97625.63;1867029;77;21426;-70
2022/06/22 03:14:38;;;;;;;5.30;4.12;;;;;;;10.55;100.00;97645.08;1866659;77;21465;-68
2022/06/22 03:17:15;;;;;;;3.80;3.50;;;;;;;10.51;100.00;97650.27;1866469;76;20853;-68
2022/06/22 03:20:03;;;;;;;3.40;3.10;;;;;;;10.59;100.00;97652.79;1866495;77;21570;-68
2022/06/22 03:22:36;;;;;;;;;;;;;;;10.67;100.00;97652.86;1869784;76;20899;-70
2022/06/22 03:25:27;;;;;;;5.65;3.30;;;;;;;10.72;100.00;97654.64;1865372;77;21254;-68
2022/06/22 03:28:02;;;;;;;4.17;2.80;;;;;;;10.75;100.00;97654.03;1857371;77;20908;-68
2022/06/22 03:30:37;;;;;;;3.12;2.30;;;;;;;10.98;100.00;97667.53;1866637;77;20860;-69
2022/06/22 03:33:13;;;;;;;2.92;2.70;;;;;;;11.06;100.00;97681.58;1816553;78;21470;-70
2022/06/22 03:35:45;;;;;;;8.43;2.83;;;;;;;11.08;100.00;97682.07;1828625;78;20998;-70
2022/06/22 03:38:17;;;;;;;3.17;2.40;;;;;;;11.04;100.00;97687.79;1796400;80;21162;-67
2022/06/22 03:40:53;;;;;;;2.75;2.50;;;;;;;11.00;100.00;97688.95;1828824;78;20964;-69
2022/06/22 03:43:45;;;;;;;2.60;2.40;;;;;;;10.92;100.00;97691.78;1796496;80;20932;-69
2022/06/22 03:46:17;;;;;;;3.87;2.50;;;;;;;10.83;100.00;97704.34;1828900;78;21450;-73
2022/06/22 03:49:01;;;;;;;2.35;2.20;;;;;;;10.78;100.00;97700.95;1796310;80;20983;-70
2022/06/22 03:51:39;;;;;;;3.08;2.65;;;;;;;10.76;100.00;97706.63;1828416;78;21872;-70
2022/06/22 03:54:20;;;;;;;2.95;2.30;;;;;;;10.72;100.00;97710.44;1826070;78;20868;-69
2022/06/22 03:56:50;;;;;;;2.70;2.50;;;;;;;10.67;100.00;97715.13;1826007;78;21382;-71
2022/06/22 03:59:17;;;;;;;2.60;2.40;;;;;;;10.69;100.00;97716.97;1822756;78;20908;-71
2022/06/22 04:01:44;;;;;;;2.92;2.62;;;;;;;10.75;100.00;97721.13;1822923;78;20925;-68
2022/06/22 04:04:11;;;;;;;2.67;2.47;;;;;;;10.83;100.00;97723.68;1790725;80;21220;-72
2022/06/22 04:06:44;;;;;;;2.40;2.20;;;;;;;10.91;100.00;97722.96;1823033;78;20908;-69
2022/06/22 04:09:24;;;;;;;2.35;2.15;;;;;;;10.96;100.00;97726.09;1790633;80;21055;-71
2022/06/22 04:12:03;;;;;;;2.45;2.33;;;;;;;11.01;100.00;97725.43;1823067;78;20948;-71
2022/06/22 04:14:41;;;;;;;2.42;2.22;;;;;;;11.03;100.00;97738.01;1790829;80;20916;-71
2022/06/22 04:17:31;;;;;;;3.08;2.20;;;;;;;11.08;100.00;97737.11;1825896;78;21158;-69
2022/06/22 04:20:06;;;;;;;2.20;2.10;;;;;;;11.08;100.00;97739.24;1826123;78;20834;-68
2022/06/22 04:22:35;;;;;;;2.20;2.10;;;;;;;11.10;100.00;97728.21;1826341;78;20924;-70
2022/06/22 04:25:27;;;;;;;2.42;2.22;;;;;;;11.15;100.00;97740.18;1826091;78;20913;-68
2022/06/22 04:27:55;;;;;;;3.08;2.25;;;;;;;11.17;100.00;97742.02;1826223;78;20920;-69
2022/06/22 04:30:29;;;;;;;2.33;2.12;;;;;;;11.21;100.00;97738.96;1826184;78;21177;-70
2022/06/22 04:33:21;;;;;;;4.47;2.20;;;;;;;11.19;100.00;97747.08;1826208;78;20983;-67
2022/06/22 04:35:57;;;;;;;2.40;2.20;;;;;;;11.10;100.00;97755.06;1826260;78;20912;-71
2022/06/22 04:38:38;;;;;;;2.40;2.20;;;;;;;11.00;100.00;97757.41;1825715;78;20964;-66
2022/06/22 04:41:33;;;;;;;2.45;2.25;;;;;;;10.82;100.00;97759.64;1826119;78;20920;-69
2022/06/22 04:44:27;;;;;;;2.15;2.05;;;;;;;10.75;100.00;97756.01;1826556;78;21111;-65
2022/06/22 04:46:58;;;;;;;3.25;2.60;;;;;;;10.70;100.00;97768.19;1824611;78;21489;-70
2022/06/22 04:49:35;;;;;;;2.50;2.30;;;;;;;10.60;100.00;97765.15;1826540;78;21439;-68
2022/06/22 04:52:12;;;;;;;3.25;2.40;;;;;;;10.64;100.00;97756.77;1824050;78;20829;-67
2022/06/22 04:54:40;;;;;;;6.55;2.72;;;;;;;10.67;100.00;97756.72;1829148;78;20872;-67
2022/06/22 04:57:29;;;;;;;3.22;3.02;;;;;;;10.70;100.00;97758.24;1796615;80;21272;-67
2022/06/22 04:59:56;;;;;;;3.05;2.70;;;;;;;10.70;100.00;97760.92;1828992;78;21401;-69
2022/06/22 05:02:26;;;;;;;2.65;2.45;;;;;;;10.71;100.00;97746.98;1799276;78;20956;-68
2022/06/22 05:05:04;;;;;;;3.83;2.80;;;;;;;10.75;100.00;97747.17;1829168;78;20900;-69
2022/06/22 05:07:55;;;;;;;3.75;3.40;;;;;;;10.70;100.00;97748.84;1796721;80;21010;-66
2022/06/22 05:10:58;;;;;;;4.22;3.12;;;;;;;10.74;100.00;97747.72;1828854;78;20912;-69
2022/06/22 05:13:29;;;;;;;4.37;3.65;;;;;;;10.77;100.00;97746.33;1796261;80;20956;-67
2022/06/22 05:15:57;;;;;;;3.55;3.22;;;;;;;10.92;100.00;97744.12;1829276;78;21426;-65
2022/06/22 05:18:30;;;;;;;4.85;3.27;;;;;;;11.02;100.00;97743.67;1796464;80;20928;-71
2022/06/22 05:21:08;;;;;;;4.33;3.90;;;;;;;11.03;100.00;97751.98;1829503;78;20865;-70
2022/06/22 05:23:36;;;;;;;4.17;3.70;;;;;;;11.08;100.00;97749.98;1796378;80;22055;-72
2022/06/22 05:26:07;;;;;;;3.50;2.92;;;;;;;11.07;100.00;97758.33;1829124;78;20976;-65
2022/06/22 05:28:45;;;;;;;4.22;2.92;;;;;;;11.01;100.00;97756.86;1796473;80;20975;-69
2022/06/22 05:31:15;;;;;;;;;;;;;;;11.00;100.00;97760.09;1832176;78;20873;-70
2022/06/22 05:33:46;;;;;;;5.00;3.83;;;;;;;11.51;100.00;97756.84;1796543;80;20095;-70
2022/06/22 05:36:16;;;;;;;5.50;3.12;;;;;;;12.61;100.00;97760.87;1829499;78;21126;-67
2022/06/22 05:38:47;;;;;;;2.45;2.25;;;;;;;13.42;100.00;97756.42;1796387;80;20909;-67
2022/06/22 05:41:17;;;;;;;2.67;2.30;;;;;;;13.37;100.00;97761.97;1829482;78;20916;-67
2022/06/22 05:43:43;;;;;;;5.12;2.75;;;;;;;13.72;100.00;97763.36;1829332;78;20960;-67
2022/06/22 05:46:10;;;;;;;13.70;5.53;;;;;;;14.24;100.00;97773.28;1829595;78;20825;-70
2022/06/22 05:48:46;;;;;;;12.75;5.05;;;;;;;14.53;100.00;97773.92;1802167;78;21219;-71
2022/06/22 05:51:28;;;;;;;11.78;4.33;;;;;;;15.21;100.00;97773.39;1829526;78;20963;-65
2022/06/22 05:54:11;;;;;;;11.20;3.85;;;;;;;15.73;100.00;97776.31;1824854;78;20836;-68
2022/06/22 05:56:45;;;;;;;6.42;3.20;;;;;;;15.85;100.00;97776.94;1829185;78;21407;-70
2022/06/22 05:59:23;;;;;;;3.47;2.40;;;;;;;15.94;100.00;97784.97;1829452;78;21532;-71
2022/06/22 06:02:02;;;;;;;3.10;1.30;;;;;;;16.24;100.00;97794.56;1828971;78;21905;-69
2022/06/22 06:04:47;;;;;;;1.20;1.10;;;;;;;16.64;100.00;97797.25;1829019;78;21003;-71
2022/06/22 06:07:26;;;;;;;4.60;1.75;;;;;;;16.68;100.00;97796.25;1796503;80;20959;-70
2022/06/22 06:09:53;;;;;;;4.97;1.20;;;;;;;15.94;100.00;97787.11;1814492;78;21419;-68
2022/06/22 06:12:27;;;;;;;1.75;1.10;;;;;;;15.18;100.00;97786.19;1829288;78;20857;-70
2022/06/22 06:14:54;;;;;;;1.35;1.25;;;;;;;14.63;100.00;97784.39;1829357;78;21100;-68
2022/06/22 06:17:46;;;;;;;3.92;1.57;;;;;;;14.30;100.00;97788.97;1829254;78;21007;-69
2022/06/22 06:20:24;;;;;;;1.50;1.40;;;;;;;14.05;100.00;97784.42;1829305;78;20917;-71
2022/06/22 06:22:53;;;;;;;1.40;1.27;;;;;;;14.02;100.00;97776.97;1824981;78;20837;-67
2022/06/22 06:28:15;;;;;;;3.60;1.57;;;;;;;14.13;100.00;97780.91;1829387;78;21149;-69
2022/06/22 06:30:46;;;;;;;6.05;1.45;;;;;;;14.09;100.00;97780.77;1829138;78;20904;-70
2022/06/22 06:33:35;;;;;;;2.17;1.47;;;;;;;14.10;100.00;97786.39;1828721;78;20908;-71
2022/06/22 06:36:19;;;;;;;2.85;1.70;;;;;;;14.14;100.00;97789.25;1828854;78;21002;-62
2022/06/22 06:38:56;;;;;;;1.87;1.62;;;;;;;13.97;100.00;97786.58;1796530;80;20880;-67
2022/06/22 06:41:41;;;;;;;2.98;1.98;;;;;;;13.90;100.00;97778.40;1829355;78;21270;-69
2022/06/22 06:44:17;;;;;;;1.75;1.20;;;;;;;13.91;100.00;97777.31;1732448;82;20928;-68
2022/06/22 06:46:53;;;;;;;1.92;1.70;;;;;;;13.96;100.00;97778.23;1749834;82;20949;-69
2022/06/22 06:49:34;;;;;;;1.80;1.70;;;;;;;13.88;100.00;97786.58;1749845;82;20901;-68
2022/06/22 06:52:21;;;;;;;3.67;2.25;;;;;;;13.92;100.00;97788.88;1750023;82;21043;-67
2022/06/22 06:55:02;;;;;;;3.40;1.92;;;;;;;13.94;100.00;97787.45;1750156;82;21253;-64
2022/06/22 06:57:29;;;;;;;5.75;1.85;;;;;;;13.91;100.00;97782.70;1736767;82;20885;-68
2022/06/22 07:00:01;;;;;;;1.98;1.87;;;;;;;13.88;100.00;97784.66;1691741;82;20884;-66
2022/06/22 07:02:37;;;;;;;3.27;1.65;;;;;;;13.89;100.00;97785.45;1749806;82;20881;-66
2022/06/22 07:05:10;;;;;;;3.05;2.00;;;;;;;13.90;100.00;97787.05;1749867;82;20980;-66
2022/06/22 07:08:00;;;;;;;2.90;1.90;;;;;;;14.03;100.00;97793.38;1750031;82;21509;-69
2022/06/22 07:10:42;;;;;;;3.72;1.82;;;;;;;14.16;100.00;97789.73;1749356;82;20921;-68
2022/06/22 07:13:26;;;;;;;2.00;1.80;;;;;;;14.40;100.00;97787.83;1750087;82;20929;-66
2022/06/22 07:16:01;;;;;;;5.42;2.27;;;;;;;14.50;100.00;97796.95;1749371;82;20972;-66
2022/06/22 07:18:33;;;;;;;4.67;2.45;;;;;;;14.40;100.00;97801.33;1749477;82;21490;-67
2022/06/22 07:21:40;;;;;;;1.50;1.40;;;;;;;14.47;100.00;97811.64;1766291;80;21260;-64
2022/06/22 07:24:29;;;;;;;5.97;3.12;;;;;;;14.32;100.00;97802.94;1828895;78;20865;-66
2022/06/22 07:27:40;;;;;;;3.50;2.20;;;;;;;14.34;100.00;97807.46;1796527;80;21438;-65
2022/06/22 07:30:44;;;;;;;2.15;1.92;;;;;;;14.45;100.00;97808.47;1829098;78;20841;-67
2022/06/22 07:33:25;;;;;;;4.20;1.98;;;;;;;14.65;100.00;97815.92;1796390;80;21505;-67
2022/06/22 07:36:03;;;;;;;2.62;2.10;;;;;;;14.69;100.00;97807.95;1829038;78;21146;-66
2022/06/22 07:38:42;;;;;;;3.83;3.05;;;;;;;14.63;100.00;97822.20;1796456;80;20880;-65
2022/06/22 07:41:22;;;;;;;6.65;2.45;;;;;;;14.71;100.00;97821.93;1829361;78;20947;-67
2022/06/22 07:43:59;;;;;;;3.33;2.27;;;;;;;14.65;100.00;97820.50;1829326;78;20928;-67
2022/06/22 07:46:41;;;;;;;3.70;2.40;;;;;;;14.88;100.00;97821.86;1829141;78;20899;-68
2022/06/22 07:49:13;;;;;;;2.85;2.08;;;;;;;14.94;100.00;97828.69;1829065;78;21252;-70
2022/06/22 07:51:50;;;;;;;3.60;2.92;;;;;;;14.63;100.00;97819.50;1829171;78;20861;-67
2022/06/22 07:54:34;;;;;;;3.50;3.20;;;;;;;14.45;100.00;97817.35;1771083;80;21446;-64
2022/06/22 07:57:12;;;;;;;2.80;2.60;;;;;;;14.48;100.00;97819.99;1747352;82;21037;-67
2022/06/22 07:59:52;;;;;;;2.70;2.50;;;;;;;14.59;100.00;97818.55;1721767;83;20940;-67
2022/06/22 08:02:24;;;;;;;3.17;2.87;;;;;;;14.88;100.00;97815.67;1713749;83;21266;-68
2022/06/22 08:05:08;;;;;;;5.83;3.15;;;;;;;14.97;100.00;97814.52;1721383;83;20925;-73
2022/06/22 08:07:45;;;;;;;4.22;2.50;;;;;;;15.07;100.00;97817.98;1721306;83;20992;-70
2022/06/22 08:10:26;;;;;;;2.45;2.25;;;;;;;15.28;100.00;97824.77;1721452;83;20956;-69
2022/06/22 08:13:22;;;;;;;7.55;2.75;;;;;;;15.49;100.00;97835.64;1721474;83;21008;-68
2022/06/22 08:16:06;;;;;;;4.25;2.12;;;;;;;15.21;100.00;97841.49;1721369;83;21346;-71
2022/06/22 08:18:33;;;;;;;4.95;3.17;;;;;;;15.05;100.00;97839.13;1721338;83;21105;-71
2022/06/22 08:21:00;;;;;;;9.70;5.37;;;;;;;14.98;100.00;97837.70;1697530;83;20884;-69
2022/06/22 08:23:31;;;;;;;8.10;3.55;;;;;;;15.12;100.00;97845.61;1721386;83;20953;-63
2022/06/22 08:26:01;;;;;;;3.62;3.33;;;;;;;15.13;100.00;97845.04;1721579;83;20937;-68
2022/06/22 08:28:29;;;;;;;5.00;3.05;;;;;;;15.03;100.00;97850.81;1721578;83;21162;-69
2022/06/22 08:30:56;;;;;;;3.62;2.80;;;;;;;15.25;100.00;97854.59;1721246;83;21027;-70
2022/06/22 08:33:32;;;;;;;6.03;3.70;;;;;;;15.37;100.00;97863.38;1742895;80;20964;-71
2022/06/22 08:36:05;;;;;;;7.92;3.20;;;;;;;15.30;100.00;97864.44;1784984;80;21411;-72
2022/06/22 08:54:45;;;;;;;4.55;1.70;;;;;;;16.59;100.00;97880.86;1639385;87;21083;-70
2022/06/22 08:57:32;;;;;;;2.75;1.80;;;;;;;16.26;100.00;97875.42;1669645;86;21254;-67
2022/06/22 09:00:34;;;;;;;7.28;2.65;;;;;;;16.41;100.00;97888.38;1669694;86;20946;-68
2022/06/22 09:03:31;;;;;;;2.27;1.67;;;;;;;16.21;100.00;97900.78;1669717;86;21041;-65
2022/06/22 09:06:18;;;;;;;3.15;1.70;;;;;;;16.10;100.00;97895.55;1669661;86;20930;-67
2022/06/22 09:09:26;;;;;;;1.57;1.47;;;;;;;16.49;100.00;97894.83;1669900;86;21037;-69
2022/06/22 09:12:19;;;;;;;2.02;1.20;;;;;;;16.71;100.00;97893.09;1669645;86;21253;-68
2022/06/22 09:15:12;;;;;;;2.02;1.40;;;;;;;16.98;100.00;97881.44;1669612;86;21463;-67
2022/06/22 09:17:51;;;;;;;3.92;2.87;;;;;;;17.05;100.00;97891.70;1669547;85;20957;-62
2022/06/22 09:20:33;;;;;;;2.95;2.10;;;;;;;17.42;97.40;97891.19;1669564;86;20938;-65
2022/06/22 09:23:33;;;;;;;3.65;1.55;;;;;;;17.63;90.35;97886.98;1669674;86;20921;-69
2022/06/22 09:26:34;;;;;;;4.33;2.12;;;;;;;18.02;92.72;97892.05;1642548;87;21895;-67
2022/06/22 09:29:14;;;;;;;3.22;1.90;;;;;;;17.77;89.13;97891.49;1641885;87;20910;-65
2022/06/22 09:31:46;;;;;;;3.02;2.60;;;;;;;17.84;89.63;97885.52;1642475;87;20959;-66
2022/06/22 09:35:04;;;;;;;1.72;1.40;;;;;;;17.82;94.15;97884.28;1642518;87;21073;-69
2022/06/22 09:38:08;;;;;;;2.02;1.10;;;;;;;18.19;80.33;97889.84;1642087;87;20947;-67
2022/06/22 09:40:46;;;;;;;2.27;1.15;;;;;;;18.43;76.68;97894.97;1642474;87;21184;-65
2022/06/22 09:43:24;;;;;;;1.92;1.37;;;;;;;18.63;80.23;97899.97;1642485;87;21019;-68
2022/06/22 09:46:11;;;;;;;2.55;1.20;;;;;;;18.74;75.87;97905.14;1642488;87;21500;-67
2022/06/22 09:49:18;;;;;;;1.67;1.57;;;;;;;18.66;76.21;97913.43;1642566;87;20995;-67
2022/06/22 09:52:02;;;;;;;1.95;1.40;;;;;;;18.35;78.56;97910.86;1642827;87;20983;-69
2022/06/22 09:58:11;;;;;;;1.20;0.90;;;;;;;19.11;73.49;97908.22;1642621;87;21074;-67
2022/06/22 10:01:03;;;;;;;5.83;2.10;;;;;;;19.16;72.23;97916.14;1642537;86;20884;-67
2022/06/22 10:03:51;;;;;;;1.47;1.10;;;;;;;19.35;72.98;97915.42;1706134;84;20868;-67
2022/06/22 10:06:47;;;;;;;2.92;1.77;;;;;;;18.91;75.93;97912.19;1706215;84;20900;-67
2022/06/22 10:09:37;;;;;;;4.53;1.80;;;;;;;18.48;78.50;97915.09;1705929;84;21458;-66
2022/06/22 10:12:34;;;;;;;1.30;1.20;;;;;;;18.11;79.58;97923.36;1706104;84;20955;-67
2022/06/22 10:15:31;;;;;;;0.90;0.90;;;;;;;18.11;81.27;97923.36;1705932;84;20919;-68
2022/06/22 10:18:17;;;;;;;1.47;1.37;;;;;;;18.45;74.65;97921.23;1706707;84;20904;-67
2022/06/22 10:21:11;;;;;;;1.72;1.27;;;;;;;18.24;80.03;97926.83;1706680;84;20940;-65
2022/06/22 10:23:49;;;;;;;1.32;1.22;;;;;;;17.79;83.66;97921.02;1706592;84;21146;-65
2022/06/22 10:26:44;;;;;;;6.97;2.20;;;;;;;17.33;93.72;97930.61;1706640;84;21464;-68
2022/06/22 10:29:50;;;;;;;2.75;1.50;;;;;;;17.22;93.47;97930.84;1706827;84;21033;-68
2022/06/22 10:32:41;;;;;;;2.17;1.40;;;;;;;17.04;93.06;97934.86;1706552;84;20948;-67
2022/06/22 10:35:46;;;;;;;5.95;1.55;;;;;;;16.60;96.12;97934.47;1706255;84;20860;-65
2022/06/22 10:38:41;;;;;;;3.98;1.40;;;;;;;16.29;100.00;97950.02;1706588;84;21097;-63
2022/06/22 10:48:20;;;;;;;2.72;1.42;;;;;;;15.91;100.00;97958.23;1706655;82;20907;-65
2022/06/22 10:51:00;;;;;;;1.52;1.42;;;;;;;15.78;100.00;97966.03;1705187;84;20908;-63
2022/06/22 10:53:56;;;;;;;1.77;1.17;;;;;;;15.79;100.00;97957.57;1702708;83;21335;-63
2022/06/22 10:56:47;;;;;;;4.30;1.67;;;;;;;16.09;100.00;97950.78;1698712;84;20979;-66
2022/06/22 10:59:22;;;;;;;2.35;1.20;;;;;;;16.41;100.00;97957.42;1698719;84;21485;-67
2022/06/22 11:02:28;;;;;;;1.12;1.07;;;;;;;16.49;90.92;97963.88;1698688;84;20919;-64
2022/06/22 11:05:22;;;;;;;3.35;1.22;;;;;;;16.40;90.84;97973.41;1698711;84;20900;-63
2022/06/22 11:08:00;;;;;;;4.42;1.47;;;;;;;16.34;93.44;97967.98;1698512;84;21275;-66
2022/06/22 11:10:48;;;;;;;1.37;1.27;;;;;;;16.16;91.99;97960.52;1658979;86;20936;-63
2022/06/22 11:13:32;;;;;;;9.00;8.15;;;;;;;16.21;94.54;97966.31;1663808;86;21555;-65
2022/06/22 11:16:16;;;;;;;1.50;1.40;;;;;;;16.24;93.74;97952.92;1659098;86;20945;-65
2022/06/22 11:19:24;;;;;;;3.12;1.30;;;;;;;16.26;92.49;97941.75;1663673;86;20978;-65
2022/06/22 11:22:20;;;;;;;1.17;1.10;;;;;;;16.54;94.78;97934.45;1659211;86;21490;-64
2022/06/22 11:25:14;;;;;;;3.40;1.30;;;;;;;17.34;93.00;97938.17;1643525;87;20914;-66
2022/06/22 11:30:58;;;;;;;1.30;1.10;;;;;;;18.53;81.97;97952.09;1636476;87;20979;-66
2022/06/22 11:33:46;;;;;;;1.52;1.10;;;;;;;19.11;81.68;97952.54;1636409;87;21596;-63
2022/06/22 11:36:29;;;;;;;3.22;1.47;;;;;;;19.24;73.44;97943.73;1607735;89;21291;-67
2022/06/22 11:39:31;;;;;;;1.72;1.20;;;;;;;19.02;80.71;97959.48;1607642;89;20904;-69
2022/06/22 11:42:26;;;;;;;5.28;1.50;;;;;;;18.68;82.38;97945.13;1607572;89;20961;-65
2022/06/22 11:48:07;;;;;;;1.10;1.00;;;;;;;18.30;88.61;97959.95;1617699;88;20865;-70
2022/06/22 11:50:48;;;;;;;1.47;1.10;;;;;;;17.71;89.41;97962.60;1630729;88;21026;-69
2022/06/22 11:53:39;;;;;;;2.10;1.10;;;;;;;17.81;93.01;97968.98;1632793;87;20876;-67
2022/06/22 11:56:33;;;;;;;7.00;1.20;;;;;;;17.95;89.22;97963.19;1637745;87;21516;-67
2022/06/22 11:59:21;;;;;;;1.62;1.37;;;;;;;17.95;84.85;97961.26;1646136;87;20955;-64
2022/06/22 12:02:31;;;;;;;3.92;1.30;;;;;;;18.58;82.46;97970.87;1665119;86;20961;-68
2022/06/22 12:05:25;;;;;;;2.05;1.20;;;;;;;18.56;82.45;97973.92;1666866;86;21170;-66
2022/06/22 12:08:23;;;;;;;1.17;1.07;;;;;;;17.39;99.44;97971.84;1666832;86;21120;-68
2022/06/22 12:11:15;;;;;;;1.20;1.10;;;;;;;17.39;99.44;97971.84;1666990;86;20897;-66
2022/06/22 12:17:08;;;;;;;1.60;1.20;;;;;;;17.19;100.00;97974.08;1690756;84;21502;-67
2022/06/22 12:19:56;;;;;;;4.62;1.15;;;;;;;17.67;100.00;97962.50;1698776;84;21172;-67
2022/06/22 12:22:40;;;;;;;2.45;1.50;;;;;;;18.15;100.00;97975.03;1697683;84;20983;-69
2022/06/22 12:25:24;;;;;;;3.25;1.30;;;;;;;18.19;99.33;97976.73;1699090;84;20983;-65
2022/06/22 12:28:03;;;;;;;2.92;1.20;;;;;;;18.19;99.33;97976.73;1698810;84;20935;-66
2022/06/22 12:30:53;;;;;;;1.42;1.20;;;;;;;18.07;99.65;97982.18;1698547;84;20884;-68
2022/06/22 12:33:26;;;;;;;2.10;1.20;;;;;;;18.44;96.21;97983.47;1698857;84;21223;-66
2022/06/22 12:36:18;;;;;;;1.20;1.10;;;;;;;18.23;97.88;97988.26;1691178;84;20980;-65
2022/06/22 12:38:50;;;;;;;1.50;1.17;;;;;;;18.24;99.69;97996.64;1689468;85;20989;-64
2022/06/22 12:42:00;;;;;;;1.82;1.37;;;;;;;18.39;97.05;98005.44;1690263;85;20909;-64
2022/06/22 12:45:04;;;;;;;1.50;1.40;;;;;;;18.67;100.00;98012.28;1690150;85;20929;-67
2022/06/22 12:47:59;;;;;;;3.00;2.70;;;;;;;17.76;100.00;98027.50;1672519;82;21256;-67
2022/06/22 12:50:44;;;;;;;3.65;2.30;;;;;;;17.76;100.00;98027.50;1689540;85;20941;-68
2022/06/22 12:53:22;;;;;;;8.10;1.72;;;;;;;17.56;100.00;98029.98;1692629;84;21011;-71
2022/06/22 12:55:56;;;;;;;3.30;2.45;;;;;;;16.95;100.00;98009.47;1705881;83;20886;-66
2022/06/22 12:58:38;;;;;;;4.03;2.00;;;;;;;16.97;100.00;98026.76;1706646;84;20943;-68
2022/06/22 13:01:05;;;;;;;11.97;2.65;;;;;;;16.75;100.00;98016.47;1705792;84;21264;-62
2022/06/22 13:03:41;;;;;;;6.17;3.15;;;;;;;16.68;100.00;98022.44;1706417;84;20982;-65
2022/06/22 13:06:09;;;;;;;14.83;3.75;;;;;;;16.82;100.00;98019.47;1706365;84;20903;-63
2022/06/22 13:08:36;;;;;;;4.65;3.20;;;;;;;16.94;100.00;98022.80;1706488;84;20991;-67
2022/06/22 13:11:06;;;;;;;2.80;2.08;;;;;;;17.08;100.00;98011.68;1706464;84;20963;-67
2022/06/22 13:14:05;;;;;;;2.33;2.00;;;;;;;17.05;100.00;98007.72;1706519;84;21124;-67
2022/06/22 13:16:40;;;;;;;4.05;2.20;;;;;;;17.00;100.00;98017.95;1677041;85;20994;-67
2022/06/22 13:19:18;;;;;;;6.87;3.25;;;;;;;16.89;100.00;98015.66;1667173;85;20896;-62